Time;durP1;ratioP1;P1;durP2;ratioP2;P2;SDS_P1;SDS_P2;PMS_P1;PMS_P2;Temp;Humidity;BMP_temperature;BMP_pressure;BME280_temperature;BME280_humidity;BME280_pressure;Samples;Min_cycle;Max_cycle;Signal;HPM_P1;HPM_P2
2023/08/08 00:00:08;;;;;;;8.07;1.92;;;15.00;99.90;;;;;;5038880;28;20037;-74
2023/08/08 00:02:34;;;;;;;7.72;2.05;;;15.00;99.90;;;;;;5033538;28;20049;-71
2023/08/08 00:04:59;;;;;;;10.55;1.30;;;15.10;99.90;;;;;;5034908;28;20022;-73
2023/08/08 00:07:26;;;;;;;10.88;1.95;;;15.10;99.90;;;;;;5037462;28;20512;-72
2023/08/08 00:09:51;;;;;;;9.77;1.88;;;15.10;99.90;;;;;;5037088;28;20034;-73
2023/08/08 00:12:17;;;;;;;10.77;1.33;;;15.10;99.90;;;;;;5035315;28;20039;-73
2023/08/08 00:14:42;;;;;;;9.15;1.42;;;15.20;99.90;;;;;;5032655;28;20148;-71
2023/08/08 00:17:08;;;;;;;8.40;1.52;;;15.20;99.90;;;;;;5034801;28;20033;-73
2023/08/08 00:19:34;;;;;;;5.72;0.98;;;15.20;99.90;;;;;;5039946;28;20127;-74
2023/08/08 00:21:59;;;;;;;8.88;2.03;;;15.30;99.90;;;;;;5041806;28;20041;-70
2023/08/08 00:24:25;;;;;;;5.35;1.52;;;15.30;99.90;;;;;;5033570;28;20116;-73
2023/08/08 00:26:51;;;;;;;7.22;1.20;;;15.30;99.90;;;;;;5034017;28;21680;-73
2023/08/08 00:29:16;;;;;;;13.02;2.42;;;15.30;99.90;;;;;;5039559;28;20037;-71
2023/08/08 00:31:42;;;;;;;8.95;1.80;;;15.30;99.90;;;;;;5034428;28;20029;-72
2023/08/08 00:34:07;;;;;;;8.98;1.48;;;15.30;99.90;;;;;;5036657;28;20039;-74
2023/08/08 00:36:33;;;;;;;8.90;1.45;;;15.30;99.90;;;;;;5032945;28;20499;-72
2023/08/08 00:38:58;;;;;;;8.10;1.10;;;15.30;99.90;;;;;;5035114;28;20056;-72
2023/08/08 00:41:25;;;;;;;11.45;1.85;;;15.30;99.90;;;;;;5037379;28;20068;-72
2023/08/08 00:43:51;;;;;;;6.32;1.30;;;15.30;99.90;;;;;;5033954;28;20119;-72
2023/08/08 00:46:20;;;;;;;5.95;1.20;;;15.30;99.90;;;;;;5035970;28;20450;-72
2023/08/08 00:48:46;;;;;;;10.43;2.20;;;15.20;99.90;;;;;;5034904;28;20463;-73
2023/08/08 00:51:12;;;;;;;8.70;1.60;;;15.10;99.90;;;;;;5035850;28;20119;-72
2023/08/08 00:53:38;;;;;;;7.28;1.77;;;15.10;99.90;;;;;;5035454;28;20041;-72
2023/08/08 00:56:04;;;;;;;7.10;1.25;;;15.10;99.90;;;;;;5038779;28;20412;-72
2023/08/08 00:58:30;;;;;;;9.05;2.08;;;15.10;99.90;;;;;;5035761;28;20045;-70
2023/08/08 01:00:59;;;;;;;7.97;2.47;;;15.20;99.90;;;;;;5037114;28;20041;-71
2023/08/08 01:03:25;;;;;;;7.93;1.38;;;15.10;99.90;;;;;;5034368;28;20045;-71
2023/08/08 01:06:01;;;;;;;10.05;2.17;;;15.10;99.90;;;;;;5041288;28;20037;-70
2023/08/08 01:08:45;;;;;;;7.80;1.75;;;15.10;99.90;;;;;;5038175;28;20606;-72
2023/08/08 01:11:11;;;;;;;6.78;1.83;;;15.10;99.90;;;;;;5009444;28;20037;-71
2023/08/08 01:13:38;;;;;;;9.57;1.40;;;15.10;99.90;;;;;;5040084;28;20040;-72
2023/08/08 01:16:05;;;;;;;8.02;1.27;;;15.00;99.90;;;;;;5037959;28;20071;-70
2023/08/08 01:18:32;;;;;;;8.07;1.15;;;15.00;99.90;;;;;;5032904;28;20111;-71
2023/08/08 01:20:58;;;;;;;7.90;1.30;;;15.00;99.90;;;;;;5038114;28;20044;-70
2023/08/08 01:23:45;;;;;;;6.88;1.23;;;15.00;99.90;;;;;;5028453;28;20040;-74
2023/08/08 01:26:12;;;;;;;7.93;1.40;;;14.90;99.90;;;;;;5033990;28;20072;-71
2023/08/08 01:28:38;;;;;;;8.43;2.33;;;14.90;99.90;;;;;;5045783;28;20400;-71
2023/08/08 01:31:04;;;;;;;6.47;1.20;;;14.90;99.90;;;;;;5043187;28;20064;-71
2023/08/08 01:33:29;;;;;;;6.20;1.95;;;14.80;99.90;;;;;;5037084;28;20056;-71
2023/08/08 01:36:10;;;;;;;9.50;1.30;;;14.80;99.90;;;;;;5042745;28;20052;-70
2023/08/08 01:38:44;;;;;;;4.10;1.13;;;14.80;99.90;;;;;;5014224;28;20033;-69
2023/08/08 01:41:10;;;;;;;6.65;1.75;;;14.70;99.90;;;;;;5034220;28;20094;-70
2023/08/08 01:43:38;;;;;;;7.50;1.30;;;14.70;99.90;;;;;;5032442;28;20041;-70
2023/08/08 01:46:05;;;;;;;8.75;1.42;;;14.70;99.90;;;;;;5034357;28;20060;-70
2023/08/08 01:48:31;;;;;;;6.60;1.45;;;14.70;99.90;;;;;;5040299;28;20124;-71
2023/08/08 01:50:56;;;;;;;6.10;1.50;;;14.70;99.90;;;;;;5037235;28;20050;-70
2023/08/08 01:53:22;;;;;;;4.78;1.42;;;14.80;99.90;;;;;;5032747;28;20057;-70
2023/08/08 01:55:48;;;;;;;8.05;1.70;;;14.80;99.90;;;;;;5038863;28;20122;-70
2023/08/08 01:58:13;;;;;;;8.00;1.50;;;14.70;99.90;;;;;;5036218;28;20121;-69
2023/08/08 02:00:40;;;;;;;3.40;0.82;;;14.70;99.90;;;;;;5037869;28;20405;-70
2023/08/08 02:03:06;;;;;;;2.67;0.88;;;14.70;99.90;;;;;;5037329;28;20469;-70
2023/08/08 02:05:32;;;;;;;3.38;0.90;;;14.70;99.90;;;;;;5037707;28;20061;-72
2023/08/08 02:07:58;;;;;;;5.82;1.15;;;14.80;99.90;;;;;;5035487;28;20045;-71
2023/08/08 02:10:23;;;;;;;2.35;0.98;;;14.70;99.90;;;;;;5036379;28;20065;-71
2023/08/08 02:12:49;;;;;;;4.15;1.15;;;14.70;99.90;;;;;;5037739;28;20126;-71
2023/08/08 02:15:14;;;;;;;6.30;1.02;;;14.70;99.90;;;;;;5040822;28;20030;-70
2023/08/08 02:17:40;;;;;;;4.63;1.20;;;14.70;99.90;;;;;;5035415;28;20037;-72
2023/08/08 02:20:07;;;;;;;4.45;0.93;;;14.70;99.90;;;;;;5039679;28;20037;-72
2023/08/08 02:22:33;;;;;;;8.77;1.50;;;14.70;99.90;;;;;;5038619;28;20037;-70
2023/08/08 02:24:58;;;;;;;4.30;0.98;;;14.60;99.90;;;;;;5036805;28;20029;-71
2023/08/08 02:27:24;;;;;;;5.35;1.75;;;14.60;99.90;;;;;;5037310;28;20396;-74
2023/08/08 02:29:49;;;;;;;7.13;1.40;;;14.60;99.90;;;;;;5040196;28;20030;-71
2023/08/08 02:32:15;;;;;;;3.65;1.33;;;14.60;99.90;;;;;;5035811;28;20565;-70
2023/08/08 02:34:42;;;;;;;5.15;1.33;;;14.50;99.90;;;;;;5032717;28;20050;-71
2023/08/08 02:37:07;;;;;;;5.18;1.60;;;14.50;99.90;;;;;;5032742;28;20025;-71
2023/08/08 02:39:33;;;;;;;2.38;0.75;;;14.50;99.90;;;;;;5038591;28;20393;-72
2023/08/08 02:41:59;;;;;;;6.30;1.40;;;14.40;99.90;;;;;;5041605;28;20126;-70
2023/08/08 02:44:24;;;;;;;3.15;1.00;;;14.40;99.90;;;;;;5034759;28;20037;-74
2023/08/08 02:46:50;;;;;;;8.10;1.15;;;14.30;99.90;;;;;;5037190;28;20022;-70
2023/08/08 02:49:15;;;;;;;3.75;1.23;;;14.30;99.90;;;;;;5040677;28;20025;-71
2023/08/08 02:51:41;;;;;;;4.40;1.00;;;14.20;99.90;;;;;;5036104;28;20035;-71
2023/08/08 02:54:06;;;;;;;3.92;0.98;;;14.10;99.90;;;;;;5038034;28;20120;-72
2023/08/08 02:56:32;;;;;;;8.93;1.30;;;14.10;99.90;;;;;;5038103;28;20701;-72
2023/08/08 02:58:58;;;;;;;6.38;1.42;;;14.00;99.90;;;;;;5390185;22;20089;-73
2023/08/08 03:01:23;;;;;;;2.47;1.45;;;14.00;99.90;;;;;;5019760;28;20069;-72
2023/08/08 03:03:49;;;;;;;7.35;1.35;;;14.00;99.90;;;;;;5027803;28;20116;-73
2023/08/08 03:06:15;;;;;;;6.13;1.10;;;14.00;99.90;;;;;;4959096;28;20501;-74
2023/08/08 03:08:40;;;;;;;3.72;0.95;;;14.00;99.90;;;;;;4975345;28;20096;-73
2023/08/08 03:11:06;;;;;;;6.72;1.42;;;14.00;99.90;;;;;;4956404;28;20414;-72
2023/08/08 03:13:32;;;;;;;11.38;1.60;;;14.00;99.90;;;;;;4956974;28;20039;-72
2023/08/08 03:15:57;;;;;;;5.78;1.00;;;14.00;99.90;;;;;;4955762;28;20453;-74
2023/08/08 03:18:24;;;;;;;2.33;1.25;;;14.00;99.90;;;;;;4957701;28;20069;-73
2023/08/08 03:20:50;;;;;;;4.10;0.95;;;14.00;99.90;;;;;;4955366;28;20185;-73
2023/08/08 03:23:15;;;;;;;2.15;0.80;;;14.00;99.90;;;;;;4957763;28;20125;-72
2023/08/08 03:25:41;;;;;;;6.40;1.20;;;14.00;99.90;;;;;;4955418;28;20402;-73
2023/08/08 03:28:06;;;;;;;4.53;0.90;;;14.10;99.90;;;;;;4957839;28;20040;-72
2023/08/08 03:30:32;;;;;;;1.73;1.10;;;14.10;99.90;;;;;;4956446;28;20055;-74
2023/08/08 03:32:57;;;;;;;2.10;0.70;;;14.10;99.90;;;;;;4956278;28;20390;-74
2023/08/08 03:35:23;;;;;;;4.78;1.00;;;14.10;99.90;;;;;;4958454;28;20043;-72
2023/08/08 03:37:48;;;;;;;1.33;0.65;;;14.00;99.90;;;;;;4954360;28;20070;-72
2023/08/08 03:40:14;;;;;;;6.57;0.70;;;14.00;99.90;;;;;;4958785;28;20096;-72
2023/08/08 03:42:40;;;;;;;1.85;0.80;;;14.00;99.90;;;;;;4955150;28;20154;-73
2023/08/08 03:45:06;;;;;;;2.50;0.70;;;14.00;99.90;;;;;;4957363;28;20122;-73
2023/08/08 03:47:31;;;;;;;1.75;0.60;;;13.90;99.90;;;;;;4956077;28;20475;-72
2023/08/08 03:49:57;;;;;;;1.60;0.60;;;14.00;99.90;;;;;;4954184;28;20117;-72
2023/08/08 03:52:24;;;;;;;2.65;0.90;;;14.00;99.90;;;;;;4955356;28;20047;-73
2023/08/08 03:54:51;;;;;;;2.33;0.73;;;14.00;99.90;;;;;;4956747;28;20043;-72
2023/08/08 03:57:16;;;;;;;2.40;0.68;;;14.00;99.90;;;;;;4955300;28;20501;-72
2023/08/08 03:59:42;;;;;;;1.75;0.45;;;13.90;99.90;;;;;;4953885;28;20036;-73
2023/08/08 04:02:08;;;;;;;2.78;0.57;;;13.90;99.90;;;;;;4953794;28;20034;-73
2023/08/08 04:04:34;;;;;;;4.97;0.90;;;13.90;99.90;;;;;;4956238;28;20550;-72
2023/08/08 04:06:59;;;;;;;6.45;1.00;;;13.80;99.90;;;;;;4956661;28;20117;-73
2023/08/08 04:09:25;;;;;;;3.97;0.90;;;13.80;99.90;;;;;;4954697;28;20097;-73
2023/08/08 04:11:50;;;;;;;4.30;0.65;;;13.70;99.90;;;;;;4958087;28;20031;-73
2023/08/08 04:14:16;;;;;;;3.05;0.75;;;13.60;99.90;;;;;;4954921;28;20039;-73
2023/08/08 04:16:41;;;;;;;3.25;1.17;;;13.60;99.90;;;;;;4956648;28;20054;-73
2023/08/08 04:19:07;;;;;;;4.60;0.80;;;13.50;99.90;;;;;;4955547;28;20035;-72
2023/08/08 04:21:32;;;;;;;2.35;1.15;;;13.50;99.90;;;;;;4956185;28;20043;-72
2023/08/08 04:23:59;;;;;;;1.30;0.68;;;13.50;99.90;;;;;;4955626;28;20039;-72
2023/08/08 04:26:25;;;;;;;3.20;0.55;;;13.50;99.90;;;;;;4954877;28;20035;-75
2023/08/08 04:28:50;;;;;;;4.15;0.88;;;13.50;99.90;;;;;;4957213;28;20397;-73
2023/08/08 04:31:16;;;;;;;1.42;0.60;;;13.60;99.90;;;;;;4953190;28;20059;-72
2023/08/08 04:33:41;;;;;;;3.33;0.65;;;13.60;99.90;;;;;;4956993;28;20803;-72
2023/08/08 04:36:07;;;;;;;4.25;1.20;;;13.60;99.90;;;;;;4955416;28;20050;-73
2023/08/08 04:38:32;;;;;;;5.22;0.70;;;13.60;99.90;;;;;;4955757;28;20118;-71
2023/08/08 04:40:59;;;;;;;1.98;0.90;;;13.60;99.90;;;;;;4956584;28;20394;-72
2023/08/08 04:43:24;;;;;;;4.20;0.93;;;13.50;99.90;;;;;;4955494;28;20048;-72
2023/08/08 04:45:51;;;;;;;3.05;1.30;;;13.60;99.90;;;;;;4956799;28;20039;-72
2023/08/08 04:48:16;;;;;;;3.35;1.35;;;13.60;99.90;;;;;;4954237;28;20047;-73
2023/08/08 04:50:42;;;;;;;3.45;0.98;;;13.50;99.90;;;;;;4954327;28;20082;-72
2023/08/08 04:53:07;;;;;;;5.53;1.30;;;13.50;99.90;;;;;;4955525;28;20035;-72
2023/08/08 04:55:33;;;;;;;2.88;0.82;;;13.50;99.90;;;;;;4959620;28;20085;-72
2023/08/08 04:57:58;;;;;;;2.80;1.20;;;13.60;99.90;;;;;;4956140;28;20050;-73
2023/08/08 05:00:26;;;;;;;3.65;0.98;;;13.60;99.90;;;;;;4957868;28;20483;-72
2023/08/08 05:02:51;;;;;;;3.17;1.17;;;13.70;99.90;;;;;;4954266;28;20035;-73
2023/08/08 05:05:17;;;;;;;4.53;0.90;;;13.70;99.90;;;;;;4954361;28;20052;-72
2023/08/08 05:07:42;;;;;;;3.83;1.08;;;13.80;99.90;;;;;;4952853;28;20061;-73
2023/08/08 05:10:08;;;;;;;5.63;1.23;;;13.80;99.90;;;;;;4957205;28;20482;-73
2023/08/08 05:12:34;;;;;;;2.75;0.95;;;13.90;99.90;;;;;;4954090;28;20042;-72
2023/08/08 05:14:59;;;;;;;2.25;1.00;;;13.90;99.90;;;;;;4954653;28;20039;-72
2023/08/08 05:17:25;;;;;;;3.30;1.05;;;13.90;99.90;;;;;;4955438;28;20058;-72
2023/08/08 05:19:50;;;;;;;2.60;1.30;;;14.00;99.90;;;;;;4957108;28;20023;-73
2023/08/08 05:22:16;;;;;;;2.92;0.65;;;14.10;99.90;;;;;;4954290;28;20050;-73
2023/08/08 05:24:41;;;;;;;2.22;0.50;;;14.10;99.90;;;;;;4956530;28;20552;-72
2023/08/08 05:27:07;;;;;;;1.45;0.80;;;14.20;99.90;;;;;;4953611;28;20038;-74
2023/08/08 05:29:32;;;;;;;3.13;0.93;;;14.20;99.90;;;;;;4957266;28;20121;-72
2023/08/08 05:31:58;;;;;;;1.15;0.60;;;14.20;99.90;;;;;;4959535;28;20114;-73
2023/08/08 05:34:24;;;;;;;1.67;0.80;;;14.30;99.90;;;;;;4957916;28;20038;-72
2023/08/08 05:36:50;;;;;;;4.20;0.40;;;14.40;99.90;;;;;;4957335;28;20477;-72
2023/08/08 05:39:15;;;;;;;3.90;0.30;;;14.40;99.90;;;;;;4960987;28;20055;-73
2023/08/08 05:41:41;;;;;;;1.83;0.30;;;14.40;99.90;;;;;;4958433;28;20125;-72
2023/08/08 05:44:06;;;;;;;2.97;0.68;;;14.30;99.90;;;;;;4949813;28;20043;-73
2023/08/08 05:46:32;;;;;;;0.80;0.35;;;14.30;99.90;;;;;;4945308;28;20149;-73
2023/08/08 05:48:58;;;;;;;0.63;0.30;;;14.40;99.90;;;;;;4946100;28;20077;-72
2023/08/08 05:51:23;;;;;;;4.22;0.25;;;14.40;99.90;;;;;;4947761;28;20074;-72
2023/08/08 05:53:49;;;;;;;3.45;0.65;;;14.40;99.90;;;;;;4945396;28;20405;-72
2023/08/08 05:56:14;;;;;;;7.07;0.50;;;14.40;99.90;;;;;;4947631;28;20043;-73
2023/08/08 05:58:40;;;;;;;1.35;0.43;;;14.40;99.90;;;;;;4946170;28;20031;-73
2023/08/08 06:01:09;;;;;;;4.13;0.40;;;14.40;99.90;;;;;;4947885;28;20042;-72
2023/08/08 06:03:34;;;;;;;1.40;0.20;;;14.50;99.90;;;;;;4944764;28;20023;-72
2023/08/08 06:06:00;;;;;;;1.73;0.35;;;14.60;99.90;;;;;;4947302;28;20406;-72
2023/08/08 06:08:26;;;;;;;1.15;0.28;;;14.60;99.90;;;;;;4945789;28;20047;-74
2023/08/08 06:10:51;;;;;;;2.33;0.30;;;14.80;99.90;;;;;;4946167;28;20028;-72
2023/08/08 06:13:17;;;;;;;2.22;0.40;;;14.90;99.90;;;;;;4946081;28;20070;-72
2023/08/08 06:15:43;;;;;;;2.65;0.32;;;15.00;99.90;;;;;;4944528;28;20081;-72
2023/08/08 06:18:08;;;;;;;2.83;0.95;;;15.20;99.90;;;;;;4947363;28;20134;-72
2023/08/08 06:20:34;;;;;;;2.35;0.32;;;15.30;99.90;;;;;;4946051;28;20031;-72
2023/08/08 06:22:59;;;;;;;1.77;0.47;;;15.50;99.90;;;;;;4947531;28;20487;-72
2023/08/08 06:25:25;;;;;;;4.05;0.40;;;15.60;99.90;;;;;;4946558;28;20090;-71
2023/08/08 06:27:50;;;;;;;2.50;0.20;;;15.80;99.90;;;;;;4946563;28;20035;-72
2023/08/08 06:30:16;;;;;;;2.75;0.28;;;16.00;99.90;;;;;;4945727;28;20453;-72
2023/08/08 06:32:42;;;;;;;0.85;0.50;;;16.20;99.90;;;;;;4946241;28;20118;-72
2023/08/08 06:35:08;;;;;;;3.15;0.20;;;16.30;99.90;;;;;;4946582;28;20067;-72
2023/08/08 06:37:33;;;;;;;1.00;0.32;;;16.40;99.90;;;;;;4945941;28;20108;-72
2023/08/08 06:39:59;;;;;;;1.58;0.73;;;16.60;99.90;;;;;;4952668;28;20035;-71
2023/08/08 06:42:25;;;;;;;1.40;0.40;;;16.90;99.90;;;;;;4945566;28;20509;-72
2023/08/08 06:44:50;;;;;;;5.05;0.47;;;17.20;99.90;;;;;;4947490;28;20149;-71
2023/08/08 06:47:16;;;;;;;0.43;0.10;;;17.70;99.90;;;;;;4948477;28;20032;-72
2023/08/08 06:49:41;;;;;;;13.02;0.43;;;18.50;99.90;;;;;;4946028;28;20031;-72
2023/08/08 06:52:07;;;;;;;1.65;0.47;;;19.50;99.90;;;;;;4945529;28;20035;-72
2023/08/08 06:54:33;;;;;;;1.25;0.40;;;20.60;99.90;;;;;;4944376;28;20638;-72
2023/08/08 06:56:58;;;;;;;4.28;0.45;;;21.20;99.90;;;;;;4946339;28;20073;-71
2023/08/08 06:59:25;;;;;;;2.50;0.38;;;21.60;99.90;;;;;;4946422;28;20039;-73
2023/08/08 07:01:50;;;;;;;2.72;0.30;;;22.20;99.90;;;;;;4949628;28;20039;-72
2023/08/08 07:04:17;;;;;;;1.45;0.30;;;22.80;99.90;;;;;;4946701;28;20036;-73
2023/08/08 07:06:44;;;;;;;1.85;0.50;;;23.40;99.90;;;;;;4951787;28;20040;-73
2023/08/08 07:09:10;;;;;;;1.40;0.25;;;24.00;99.90;;;;;;4944649;28;20040;-73
2023/08/08 07:11:37;;;;;;;0.98;0.32;;;24.60;99.90;;;;;;4946635;28;20786;-73
2023/08/08 07:14:02;;;;;;;1.50;0.38;;;25.10;99.60;;;;;;4947496;28;20035;-73
2023/08/08 07:16:28;;;;;;;2.25;0.45;;;25.50;99.90;;;;;;4948533;28;20049;-73
2023/08/08 07:18:54;;;;;;;1.15;0.30;;;26.10;98.50;;;;;;4945835;28;20027;-72
2023/08/08 07:21:20;;;;;;;0.55;0.32;;;26.20;98.20;;;;;;4946241;28;20039;-73
2023/08/08 07:23:45;;;;;;;0.95;0.32;;;26.40;98.10;;;;;;4945701;28;20043;-71
2023/08/08 07:26:11;;;;;;;1.85;0.40;;;26.20;97.30;;;;;;4945648;28;20046;-73
2023/08/08 07:28:37;;;;;;;1.73;0.50;;;26.10;97.40;;;;;;4947008;28;20449;-73
2023/08/08 07:31:02;;;;;;;0.95;0.22;;;26.10;97.50;;;;;;4944735;28;20395;-72
2023/08/08 07:33:28;;;;;;;2.88;0.65;;;26.30;96.60;;;;;;4945238;28;20049;-74
2023/08/08 07:35:54;;;;;;;2.45;0.73;;;25.90;96.80;;;;;;4942149;28;20096;-72
2023/08/08 07:38:19;;;;;;;2.47;0.40;;;26.10;96.60;;;;;;4946305;28;20065;-72
2023/08/08 07:40:45;;;;;;;0.40;0.13;;;25.60;96.40;;;;;;4946850;28;20508;-72
2023/08/08 07:43:11;;;;;;;2.47;0.10;;;25.00;97.60;;;;;;4946387;28;20439;-72
2023/08/08 07:45:37;;;;;;;0.82;0.20;;;24.30;97.30;;;;;;4944981;28;20100;-72
2023/08/08 07:48:03;;;;;;;2.83;0.45;;;23.50;97.10;;;;;;4946321;28;20506;-72
2023/08/08 07:50:29;;;;;;;3.10;0.50;;;22.80;98.10;;;;;;4946033;28;20041;-71
2023/08/08 07:52:54;;;;;;;0.32;0.00;;;22.10;99.00;;;;;;4946317;28;20024;-71
2023/08/08 07:55:20;;;;;;;2.30;0.32;;;21.80;99.90;;;;;;4944125;28;20118;-72
2023/08/08 07:57:46;;;;;;;1.65;0.10;;;21.40;99.90;;;;;;4953584;28;20040;-74
2023/08/08 08:00:12;;;;;;;1.00;0.50;;;21.10;99.90;;;;;;4945916;28;20499;-72
2023/08/08 08:02:42;;;;;;;1.40;0.20;;;20.80;99.90;;;;;;4944862;28;20439;-71
2023/08/08 08:05:08;;;;;;;0.80;0.10;;;20.60;99.90;;;;;;4943758;28;20035;-72
2023/08/08 08:07:35;;;;;;;0.50;0.00;;;20.30;99.90;;;;;;4944352;28;20039;-72
2023/08/08 08:10:02;;;;;;;2.88;0.55;;;20.20;99.90;;;;;;4942366;28;20406;-73
2023/08/08 08:12:28;;;;;;;1.75;0.10;;;20.10;99.90;;;;;;4944712;28;20479;-72
2023/08/08 08:14:54;;;;;;;0.88;0.20;;;20.10;99.90;;;;;;4945533;28;20096;-74
2023/08/08 08:17:20;;;;;;;1.20;0.20;;;19.90;99.90;;;;;;4943786;28;20039;-72
2023/08/08 08:19:45;;;;;;;2.00;0.25;;;19.80;99.90;;;;;;4950640;28;20040;-71
2023/08/08 08:22:11;;;;;;;1.45;0.10;;;19.70;99.90;;;;;;4944116;28;20126;-73
2023/08/08 08:24:36;;;;;;;2.50;0.10;;;19.70;99.90;;;;;;4942917;28;20035;-72
2023/08/08 08:27:02;;;;;;;0.82;0.10;;;19.80;99.90;;;;;;4943906;28;20035;-72
2023/08/08 08:29:27;;;;;;;1.77;0.10;;;19.70;99.90;;;;;;4944315;28;20042;-72
2023/08/08 08:31:53;;;;;;;1.85;0.47;;;19.70;99.90;;;;;;4943798;28;20031;-72
2023/08/08 08:34:18;;;;;;;1.55;0.10;;;19.80;99.90;;;;;;4944182;28;20039;-71
2023/08/08 08:36:44;;;;;;;5.18;0.30;;;19.70;99.90;;;;;;4942865;28;20039;-71
2023/08/08 08:39:10;;;;;;;0.65;0.10;;;19.70;99.90;;;;;;4952070;28;20457;-72
2023/08/08 08:41:37;;;;;;;0.43;0.10;;;19.70;99.90;;;;;;4945804;28;20448;-73
2023/08/08 08:44:04;;;;;;;0.40;0.10;;;19.70;99.90;;;;;;4948500;28;20047;-72
2023/08/08 08:46:30;;;;;;;0.75;0.10;;;19.70;99.90;;;;;;4941888;28;20035;-72
2023/08/08 08:48:59;;;;;;;2.72;0.13;;;19.60;99.90;;;;;;4943775;28;20039;-72
2023/08/08 08:51:25;;;;;;;0.43;0.28;;;19.70;99.90;;;;;;4945275;28;20486;-72
2023/08/08 08:53:51;;;;;;;0.80;0.00;;;19.70;99.90;;;;;;4944446;28;20118;-71
2023/08/08 08:56:17;;;;;;;0.50;0.20;;;19.70;99.90;;;;;;4945158;28;20138;-72
2023/08/08 08:58:43;;;;;;;1.58;0.20;;;20.00;99.90;;;;;;4943920;28;20039;-73
2023/08/08 09:01:10;;;;;;;1.02;0.20;;;20.10;99.90;;;;;;4945390;28;20050;-72
2023/08/08 09:03:36;;;;;;;2.70;0.63;;;20.00;99.90;;;;;;4946511;28;20723;-72
2023/08/08 09:06:04;;;;;;;3.33;0.52;;;19.90;99.90;;;;;;4948828;28;20039;-74
2023/08/08 09:08:30;;;;;;;0.40;0.10;;;19.70;99.90;;;;;;4947071;28;20039;-72
2023/08/08 09:10:56;;;;;;;1.08;0.28;;;19.70;99.90;;;;;;4948399;28;20479;-72
2023/08/08 09:13:22;;;;;;;0.82;0.30;;;19.90;99.90;;;;;;4947573;28;20047;-73
2023/08/08 09:15:51;;;;;;;0.90;0.08;;;20.00;99.90;;;;;;4947082;28;20063;-72
2023/08/08 09:18:17;;;;;;;1.45;0.10;;;20.00;99.90;;;;;;4948120;28;20141;-73
2023/08/08 09:20:48;;;;;;;0.43;0.10;;;19.90;99.90;;;;;;4947662;28;20040;-73
2023/08/08 09:23:14;;;;;;;1.20;0.10;;;19.90;99.90;;;;;;4948902;28;20029;-73
2023/08/08 09:25:39;;;;;;;2.35;0.20;;;20.00;99.90;;;;;;4945349;28;20118;-71
2023/08/08 09:28:05;;;;;;;1.25;0.10;;;20.30;99.90;;;;;;4950519;28;20031;-72
2023/08/08 09:30:31;;;;;;;1.20;0.10;;;20.30;99.90;;;;;;4947583;28;20035;-71
2023/08/08 09:33:03;;;;;;;0.45;0.13;;;20.40;99.90;;;;;;4946242;28;20422;-74
2023/08/08 09:35:29;;;;;;;1.30;0.22;;;20.60;99.90;;;;;;4943297;28;20055;-71
2023/08/08 09:37:55;;;;;;;0.77;0.10;;;20.60;99.90;;;;;;4945279;28;20035;-71
2023/08/08 09:40:22;;;;;;;2.05;0.20;;;20.50;99.90;;;;;;4945473;28;20050;-72
2023/08/08 09:42:48;;;;;;;3.35;0.35;;;20.60;99.90;;;;;;4947664;28;20027;-71
2023/08/08 09:45:14;;;;;;;3.05;0.65;;;20.60;99.90;;;;;;4945816;28;20093;-72
2023/08/08 09:47:40;;;;;;;0.57;0.10;;;20.70;99.90;;;;;;4946474;28;20039;-74
2023/08/08 09:50:06;;;;;;;0.38;0.10;;;20.70;99.90;;;;;;4946186;28;20513;-71
2023/08/08 09:52:33;;;;;;;0.90;0.20;;;20.60;99.90;;;;;;4945493;28;20720;-74
2023/08/08 09:55:00;;;;;;;0.82;0.30;;;20.50;99.90;;;;;;4947090;28;20039;-72
2023/08/08 09:57:25;;;;;;;0.20;0.10;;;20.20;99.90;;;;;;4947487;28;20146;-72
2023/08/08 09:59:52;;;;;;;0.30;0.10;;;20.00;99.90;;;;;;4945631;28;20115;-72
2023/08/08 10:02:18;;;;;;;7.20;0.22;;;20.00;99.90;;;;;;4947807;28;20108;-72
2023/08/08 10:04:47;;;;;;;0.63;0.10;;;19.90;99.90;;;;;;4944917;28;20031;-71
2023/08/08 10:07:12;;;;;;;1.13;0.20;;;20.10;99.90;;;;;;4947737;28;20114;-71
2023/08/08 10:09:39;;;;;;;1.00;0.10;;;20.30;99.90;;;;;;4947799;28;20522;-71
2023/08/08 10:12:06;;;;;;;0.55;0.10;;;20.20;99.90;;;;;;4949934;28;20045;-71
2023/08/08 10:14:34;;;;;;;1.55;0.30;;;20.20;99.90;;;;;;4944027;28;20043;-73
2023/08/08 10:17:02;;;;;;;3.50;0.10;;;20.30;99.90;;;;;;4947052;28;20031;-71
2023/08/08 10:19:29;;;;;;;2.05;0.38;;;20.50;99.90;;;;;;4946098;28;20554;-71
2023/08/08 10:22:09;;;;;;;0.65;0.15;;;20.80;99.90;;;;;;4946962;28;20031;-72
2023/08/08 10:24:35;;;;;;;;;;;21.10;99.90;;;;;;4946562;28;20096;-72
2023/08/08 10:27:02;;;;;;;1.15;0.10;;;21.20;99.90;;;;;;4947184;28;19921;-72
2023/08/08 10:29:32;;;;;;;1.65;0.10;;;21.30;99.90;;;;;;4942976;28;20509;-73
2023/08/08 10:32:03;;;;;;;;;;;21.50;99.90;;;;;;4947946;28;20035;-72
2023/08/08 10:34:38;;;;;;;2.90;0.17;;;21.60;99.90;;;;;;4949392;28;19926;-71
2023/08/08 10:37:05;;;;;;;0.75;0.20;;;21.40;99.90;;;;;;4945515;28;20070;-71
2023/08/08 10:39:31;;;;;;;1.85;0.13;;;21.50;99.90;;;;;;4945759;28;20071;-72
2023/08/08 10:42:03;;;;;;;1.48;0.10;;;21.60;99.90;;;;;;4947187;28;20081;-71
2023/08/08 10:44:28;;;;;;;1.17;0.13;;;21.60;99.90;;;;;;4945064;28;20085;-73
2023/08/08 10:46:55;;;;;;;1.52;0.35;;;21.60;99.90;;;;;;4947484;28;20110;-71
2023/08/08 10:49:21;;;;;;;1.95;0.20;;;21.60;99.90;;;;;;4949531;28;20038;-73
2023/08/08 10:51:48;;;;;;;0.28;0.10;;;21.60;99.90;;;;;;4946338;28;20040;-71
2023/08/08 10:54:23;;;;;;;0.93;0.20;;;21.70;99.90;;;;;;4952325;28;20066;-71
2023/08/08 10:56:56;;;;;;;2.15;0.30;;;21.70;99.90;;;;;;4955866;28;20039;-73
2023/08/08 10:59:39;;;;;;;0.82;0.10;;;21.70;99.90;;;;;;4947666;28;20047;-72
2023/08/08 11:02:04;;;;;;;2.05;0.32;;;21.60;99.90;;;;;;4954750;28;20118;-71
2023/08/08 11:04:32;;;;;;;0.47;0.13;;;21.70;99.90;;;;;;4945813;28;20142;-72
2023/08/08 11:06:58;;;;;;;0.55;0.17;;;21.80;99.90;;;;;;4944962;28;20039;-71
2023/08/08 11:09:26;;;;;;;3.20;0.13;;;21.80;99.80;;;;;;4957409;28;20046;-73
2023/08/08 11:11:51;;;;;;;2.75;0.35;;;21.70;99.90;;;;;;4950939;28;20134;-71
2023/08/08 11:14:21;;;;;;;0.55;0.10;;;21.60;99.90;;;;;;4946284;28;20501;-72
2023/08/08 11:16:48;;;;;;;1.13;0.17;;;21.60;99.90;;;;;;4945517;28;20047;-72
2023/08/08 11:19:16;;;;;;;0.82;0.10;;;21.60;99.90;;;;;;4946533;28;20054;-73
2023/08/08 11:21:43;;;;;;;1.13;0.15;;;21.60;99.90;;;;;;4949017;28;20045;-71
2023/08/08 11:24:10;;;;;;;1.33;0.10;;;21.60;99.90;;;;;;4946407;28;20043;-72
2023/08/08 11:26:36;;;;;;;2.90;0.45;;;21.70;99.90;;;;;;4944135;28;20039;-71
2023/08/08 11:29:05;;;;;;;2.38;0.10;;;21.80;99.90;;;;;;4945243;28;20039;-72
2023/08/08 11:31:31;;;;;;;0.50;0.20;;;21.70;99.90;;;;;;4945565;28;20577;-71
2023/08/08 11:33:59;;;;;;;1.08;0.20;;;21.70;99.90;;;;;;4946156;28;20085;-73
2023/08/08 11:36:32;;;;;;;2.35;0.35;;;21.60;99.90;;;;;;4945952;28;20062;-71
2023/08/08 11:39:03;;;;;;;1.25;0.10;;;21.40;99.90;;;;;;4945809;28;20050;-71
2023/08/08 11:41:28;;;;;;;1.45;0.20;;;21.30;99.90;;;;;;4945312;28;20062;-74
2023/08/08 11:43:55;;;;;;;0.52;0.10;;;21.30;99.90;;;;;;4945841;28;20438;-72
2023/08/08 11:46:24;;;;;;;1.25;0.20;;;21.30;99.90;;;;;;4947507;28;20090;-73
2023/08/08 11:48:49;;;;;;;0.55;0.17;;;21.20;99.90;;;;;;4944900;28;20035;-73
2023/08/08 11:51:16;;;;;;;0.55;0.10;;;21.10;99.90;;;;;;4944220;28;20398;-72
2023/08/08 11:53:50;;;;;;;2.42;0.20;;;20.90;99.90;;;;;;4944973;28;20114;-72
2023/08/08 11:56:16;;;;;;;0.30;0.05;;;20.70;99.90;;;;;;4945957;28;20533;-71
2023/08/08 11:58:42;;;;;;;0.75;0.15;;;20.50;99.90;;;;;;4944285;28;20069;-73
2023/08/08 12:01:08;;;;;;;0.70;0.13;;;20.50;99.90;;;;;;4944278;28;20436;-72
2023/08/08 12:03:38;;;;;;;0.65;0.10;;;20.50;99.90;;;;;;4944907;28;20046;-72
2023/08/08 12:06:17;;;;;;;0.80;0.00;;;20.70;99.90;;;;;;4945667;28;20096;-72
2023/08/08 12:08:44;;;;;;;1.27;0.00;;;20.70;99.90;;;;;;4944174;28;20047;-71
2023/08/08 12:11:11;;;;;;;0.38;0.10;;;20.80;99.90;;;;;;4944174;28;20041;-72
2023/08/08 12:13:41;;;;;;;5.25;0.28;;;20.80;99.90;;;;;;4944152;28;20135;-71
2023/08/08 12:16:09;;;;;;;1.95;0.10;;;20.60;99.90;;;;;;4947531;28;20065;-72
2023/08/08 12:18:38;;;;;;;1.30;0.50;;;20.50;99.90;;;;;;4943971;28;20425;-71
2023/08/08 12:21:08;;;;;;;1.60;0.27;;;20.30;99.90;;;;;;4945186;28;20490;-72
2023/08/08 12:23:35;;;;;;;1.33;0.35;;;20.50;99.90;;;;;;4944594;28;20283;-71
2023/08/08 12:26:04;;;;;;;1.08;0.13;;;20.50;99.90;;;;;;4944334;28;20122;-71
2023/08/08 12:28:30;;;;;;;2.50;0.40;;;20.50;99.90;;;;;;4945406;28;20066;-71
2023/08/08 12:30:56;;;;;;;2.75;0.32;;;20.50;99.90;;;;;;4951188;28;20055;-72
2023/08/08 12:33:21;;;;;;;0.90;0.00;;;20.60;99.90;;;;;;4944413;28;20049;-71
2023/08/08 12:35:48;;;;;;;1.15;0.20;;;20.60;99.90;;;;;;4943975;28;20075;-71
2023/08/08 12:38:14;;;;;;;0.30;0.08;;;20.80;99.90;;;;;;4944834;28;20046;-72
2023/08/08 12:40:40;;;;;;;2.47;0.30;;;20.80;99.90;;;;;;4944349;28;20134;-72
2023/08/08 12:43:05;;;;;;;0.70;0.10;;;21.00;99.90;;;;;;4944835;28;20395;-71